This is the latest recevied weather packets stored in our database for station/object CA3SQH-10. If no packets are shown the sender has not sent any weather packets the latest 10 day(s).
| Time | Temp. | Humidity | Pressure | Rain* | Wind** | Luminosity | Snow |
|---|---|---|---|---|---|---|---|
| 1777904915 | 20° C | 38% | 938.8 hPa | - | - | - | - |
| 1777904015 | 18.89° C | 39% | 938.8 hPa | - | - | - | - |
| 1777903115 | 18.33° C | 42% | 938.9 hPa | - | - | - | - |
| 1777902215 | 17.78° C | 45% | 938.9 hPa | - | - | - | - |
| 1777901314 | 17.78° C | 47% | 938.8 hPa | - | - | - | - |
| 1777900414 | 17.22° C | 48% | 938.7 hPa | - | - | - | - |
| 1777899514 | 17.22° C | 47% | 938.7 hPa | - | - | - | - |
| 1777898614 | 16.67° C | 46% | 938.5 hPa | - | - | - | - |
| 1777897713 | 16.67° C | 47% | 938.4 hPa | - | - | - | - |
| 1777896813 | 16.11° C | 48% | 938.5 hPa | - | - | - | - |
| 1777895913 | 16.11° C | 49% | 938.4 hPa | - | - | - | - |
| 1777895013 | 16.11° C | 48% | 938.5 hPa | - | - | - | - |
| 1777894113 | 16.11° C | 48% | 938.3 hPa | - | - | - | - |
| 1777893212 | 15.56° C | 49% | 938.3 hPa | - | - | - | - |
| 1777892312 | 16.11° C | 48% | 938.3 hPa | - | - | - | - |
| 1777891412 | 16.11° C | 49% | 938.2 hPa | - | - | - | - |
| 1777890512 | 15.56° C | 51% | 938.1 hPa | - | - | - | - |
| 1777889612 | 16.11° C | 48% | 938.1 hPa | - | - | - | - |
| 1777888711 | 16.11° C | 48% | 938 hPa | - | - | - | - |
| 1777887811 | 16.11° C | 49% | 938.1 hPa | - | - | - | - |
| 1777886911 | 16.11° C | 47% | 938.1 hPa | - | - | - | - |
| 1777886011 | 16.11° C | 47% | 938.1 hPa | - | - | - | - |
| 1777885109 | 16.11° C | 48% | 937.9 hPa | - | - | - | - |
| 1777884199 | 16.11° C | 49% | 937.9 hPa | - | - | - | - |
| 1777883299 | 16.11° C | 48% | 937.7 hPa | - | - | - | - |
* Rain since midnight (hover to see other rain measurements)
** Current wind speed in m/s (hover to see current wind gust speed)